sensor_id;sensor_type;location;lat;lon;timestamp;temperature;humidity
13970;DHT22;7057;49.984;8.404;2022-07-17T00:02:15;17.80;99.90
13970;DHT22;7057;49.984;8.404;2022-07-17T00:04:44;17.80;99.90
13970;DHT22;7057;49.984;8.404;2022-07-17T00:07:11;18.00;99.90
13970;DHT22;7057;49.984;8.404;2022-07-17T00:09:38;17.90;99.90
13970;DHT22;7057;49.984;8.404;2022-07-17T00:12:06;17.80;99.90
13970;DHT22;7057;49.984;8.404;2022-07-17T00:14:33;17.70;99.90
13970;DHT22;7057;49.984;8.404;2022-07-17T00:17:00;17.70;99.90
13970;DHT22;7057;49.984;8.404;2022-07-17T00:19:27;17.60;99.90
13970;DHT22;7057;49.984;8.404;2022-07-17T00:21:56;17.60;99.90
13970;DHT22;7057;49.984;8.404;2022-07-17T00:24:23;17.50;99.90
13970;DHT22;7057;49.984;8.404;2022-07-17T00:26:51;17.50;99.90
13970;DHT22;7057;49.984;8.404;2022-07-17T00:29:19;17.30;99.90
13970;DHT22;7057;49.984;8.404;2022-07-17T00:31:46;17.20;99.90
13970;DHT22;7057;49.984;8.404;2022-07-17T00:34:13;17.10;99.90
13970;DHT22;7057;49.984;8.404;2022-07-17T00:36:41;17.10;99.90
13970;DHT22;7057;49.984;8.404;2022-07-17T00:39:09;17.00;99.90
13970;DHT22;7057;49.984;8.404;2022-07-17T00:41:37;17.00;99.90
13970;DHT22;7057;49.984;8.404;2022-07-17T00:44:05;16.90;99.90
13970;DHT22;7057;49.984;8.404;2022-07-17T00:46:33;16.80;99.90
13970;DHT22;7057;49.984;8.404;2022-07-17T00:49:01;16.70;99.90
13970;DHT22;7057;49.984;8.404;2022-07-17T00:51:28;16.70;99.90
13970;DHT22;7057;49.984;8.404;2022-07-17T00:53:57;16.60;99.90
13970;DHT22;7057;49.984;8.404;2022-07-17T00:56:27;16.60;99.90
13970;DHT22;7057;49.984;8.404;2022-07-17T00:58:55;16.60;99.90
13970;DHT22;7057;49.984;8.404;2022-07-17T01:01:22;16.50;99.90
13970;DHT22;7057;49.984;8.404;2022-07-17T01:03:49;16.40;99.90
13970;DHT22;7057;49.984;8.404;2022-07-17T01:06:16;16.40;99.90
13970;DHT22;7057;49.984;8.404;2022-07-17T01:08:44;16.30;99.90
13970;DHT22;7057;49.984;8.404;2022-07-17T01:11:11;16.30;99.90
13970;DHT22;7057;49.984;8.404;2022-07-17T01:13:40;16.20;99.90
13970;DHT22;7057;49.984;8.404;2022-07-17T01:16:07;16.20;99.90
13970;DHT22;7057;49.984;8.404;2022-07-17T01:18:34;16.20;99.90
13970;DHT22;7057;49.984;8.404;2022-07-17T01:21:05;16.20;99.90
13970;DHT22;7057;49.984;8.404;2022-07-17T01:23:32;16.20;99.90
13970;DHT22;7057;49.984;8.404;2022-07-17T01:25:59;16.10;99.90
13970;DHT22;7057;49.984;8.404;2022-07-17T01:28:26;16.20;99.90
13970;DHT22;7057;49.984;8.404;2022-07-17T01:30:53;16.10;99.90
13970;DHT22;7057;49.984;8.404;2022-07-17T01:33:21;16.10;99.90
13970;DHT22;7057;49.984;8.404;2022-07-17T01:35:48;16.10;99.90
13970;DHT22;7057;49.984;8.404;2022-07-17T01:38:17;16.00;99.90
13970;DHT22;7057;49.984;8.404;2022-07-17T01:40:44;16.00;99.90
13970;DHT22;7057;49.984;8.404;2022-07-17T01:43:11;15.90;99.90
13970;DHT22;7057;49.984;8.404;2022-07-17T01:45:38;15.90;99.90
13970;DHT22;7057;49.984;8.404;2022-07-17T01:48:06;15.80;99.90
13970;DHT22;7057;49.984;8.404;2022-07-17T01:50:33;15.80;99.90
13970;DHT22;7057;49.984;8.404;2022-07-17T01:53:00;15.80;99.90
13970;DHT22;7057;49.984;8.404;2022-07-17T01:55:28;15.70;99.90
13970;DHT22;7057;49.984;8.404;2022-07-17T01:57:56;15.60;99.90
13970;DHT22;7057;49.984;8.404;2022-07-17T02:00:23;15.60;99.90
13970;DHT22;7057;49.984;8.404;2022-07-17T02:02:51;15.50;99.90
13970;DHT22;7057;49.984;8.404;2022-07-17T02:05:18;15.50;99.90
13970;DHT22;7057;49.984;8.404;2022-07-17T02:07:46;15.40;99.90
13970;DHT22;7057;49.984;8.404;2022-07-17T02:10:13;15.40;99.90
13970;DHT22;7057;49.984;8.404;2022-07-17T02:12:42;15.40;99.90
13970;DHT22;7057;49.984;8.404;2022-07-17T02:15:10;15.40;99.90
13970;DHT22;7057;49.984;8.404;2022-07-17T02:17:38;15.40;99.90
13970;DHT22;7057;49.984;8.404;2022-07-17T02:20:07;15.40;99.90
13970;DHT22;7057;49.984;8.404;2022-07-17T02:22:35;15.40;99.90
13970;DHT22;7057;49.984;8.404;2022-07-17T02:25:04;15.30;99.90
13970;DHT22;7057;49.984;8.404;2022-07-17T02:27:31;15.30;99.90
13970;DHT22;7057;49.984;8.404;2022-07-17T02:30:01;15.30;99.90
13970;DHT22;7057;49.984;8.404;2022-07-17T02:32:28;15.30;99.90
13970;DHT22;7057;49.984;8.404;2022-07-17T02:34:55;15.40;99.90
13970;DHT22;7057;49.984;8.404;2022-07-17T02:37:22;15.30;99.90
13970;DHT22;7057;49.984;8.404;2022-07-17T02:39:50;15.30;99.90
13970;DHT22;7057;49.984;8.404;2022-07-17T02:42:20;15.30;99.90
13970;DHT22;7057;49.984;8.404;2022-07-17T02:44:48;15.30;99.90
13970;DHT22;7057;49.984;8.404;2022-07-17T02:47:22;15.20;99.90
13970;DHT22;7057;49.984;8.404;2022-07-17T02:49:49;15.20;99.90
13970;DHT22;7057;49.984;8.404;2022-07-17T02:52:17;15.20;99.90
13970;DHT22;7057;49.984;8.404;2022-07-17T02:54:44;15.20;99.90
13970;DHT22;7057;49.984;8.404;2022-07-17T02:57:12;15.20;99.90
13970;DHT22;7057;49.984;8.404;2022-07-17T02:59:39;15.20;99.90
13970;DHT22;7057;49.984;8.404;2022-07-17T03:02:06;15.20;99.90
13970;DHT22;7057;49.984;8.404;2022-07-17T03:04:35;15.20;99.90
13970;DHT22;7057;49.984;8.404;2022-07-17T03:07:02;15.20;99.90
13970;DHT22;7057;49.984;8.404;2022-07-17T03:09:29;15.20;99.90
13970;DHT22;7057;49.984;8.404;2022-07-17T03:11:56;15.30;99.90
13970;DHT22;7057;49.984;8.404;2022-07-17T03:14:24;15.30;99.90
13970;DHT22;7057;49.984;8.404;2022-07-17T03:16:51;15.30;99.90
13970;DHT22;7057;49.984;8.404;2022-07-17T03:19:19;15.30;99.90
13970;DHT22;7057;49.984;8.404;2022-07-17T03:21:47;15.30;99.90
13970;DHT22;7057;49.984;8.404;2022-07-17T03:24:14;15.30;99.90
13970;DHT22;7057;49.984;8.404;2022-07-17T03:26:41;15.30;99.90
13970;DHT22;7057;49.984;8.404;2022-07-17T03:29:09;15.30;99.90
13970;DHT22;7057;49.984;8.404;2022-07-17T03:31:36;15.20;99.90
13970;DHT22;7057;49.984;8.404;2022-07-17T03:34:04;15.20;99.90
13970;DHT22;7057;49.984;8.404;2022-07-17T03:36:31;15.20;99.90
13970;DHT22;7057;49.984;8.404;2022-07-17T03:38:59;15.20;99.90
13970;DHT22;7057;49.984;8.404;2022-07-17T03:41:26;15.10;99.90
13970;DHT22;7057;49.984;8.404;2022-07-17T03:43:53;15.10;99.90
13970;DHT22;7057;49.984;8.404;2022-07-17T03:46:21;15.00;99.90
13970;DHT22;7057;49.984;8.404;2022-07-17T03:48:48;15.00;99.90
13970;DHT22;7057;49.984;8.404;2022-07-17T03:51:15;15.10;99.90
13970;DHT22;7057;49.984;8.404;2022-07-17T03:53:42;15.10;99.90
13970;DHT22;7057;49.984;8.404;2022-07-17T03:56:11;15.10;99.90
13970;DHT22;7057;49.984;8.404;2022-07-17T03:58:38;15.20;99.90
13970;DHT22;7057;49.984;8.404;2022-07-17T04:01:05;15.10;99.90
13970;DHT22;7057;49.984;8.404;2022-07-17T04:03:32;15.10;99.90
13970;DHT22;7057;49.984;8.404;2022-07-17T04:06:00;15.10;99.90
13970;DHT22;7057;49.984;8.404;2022-07-17T04:08:27;15.10;99.90
13970;DHT22;7057;49.984;8.404;2022-07-17T04:10:54;15.10;99.90
13970;DHT22;7057;49.984;8.404;2022-07-17T04:13:22;15.10;99.90
13970;DHT22;7057;49.984;8.404;2022-07-17T04:15:50;15.10;99.90
13970;DHT22;7057;49.984;8.404;2022-07-17T04:18:19;15.10;99.90
13970;DHT22;7057;49.984;8.404;2022-07-17T04:20:46;15.20;99.90
13970;DHT22;7057;49.984;8.404;2022-07-17T04:23:14;15.20;99.90
13970;DHT22;7057;49.984;8.404;2022-07-17T04:25:41;15.30;99.90
13970;DHT22;7057;49.984;8.404;2022-07-17T04:28:08;15.30;99.90
13970;DHT22;7057;49.984;8.404;2022-07-17T04:30:37;15.40;99.90
13970;DHT22;7057;49.984;8.404;2022-07-17T04:33:04;15.40;99.90
13970;DHT22;7057;49.984;8.404;2022-07-17T04:35:32;15.50;99.90
13970;DHT22;7057;49.984;8.404;2022-07-17T04:37:59;15.60;99.90
13970;DHT22;7057;49.984;8.404;2022-07-17T04:40:27;15.70;99.90
13970;DHT22;7057;49.984;8.404;2022-07-17T04:42:54;15.70;99.90
13970;DHT22;7057;49.984;8.404;2022-07-17T04:45:21;15.80;99.90
13970;DHT22;7057;49.984;8.404;2022-07-17T04:47:50;15.90;99.90
13970;DHT22;7057;49.984;8.404;2022-07-17T04:50:17;16.00;99.90
13970;DHT22;7057;49.984;8.404;2022-07-17T04:52:44;16.20;99.90
13970;DHT22;7057;49.984;8.404;2022-07-17T04:55:12;16.30;99.90
13970;DHT22;7057;49.984;8.404;2022-07-17T04:57:39;16.40;99.90
13970;DHT22;7057;49.984;8.404;2022-07-17T05:00:08;16.50;99.90
13970;DHT22;7057;49.984;8.404;2022-07-17T05:02:35;16.60;99.90
13970;DHT22;7057;49.984;8.404;2022-07-17T05:05:05;16.70;99.90
13970;DHT22;7057;49.984;8.404;2022-07-17T05:07:32;16.80;99.90
13970;DHT22;7057;49.984;8.404;2022-07-17T05:10:00;16.90;99.90
13970;DHT22;7057;49.984;8.404;2022-07-17T05:12:27;16.90;99.90
13970;DHT22;7057;49.984;8.404;2022-07-17T05:14:54;17.00;99.90
13970;DHT22;7057;49.984;8.404;2022-07-17T05:17:21;17.00;99.90
13970;DHT22;7057;49.984;8.404;2022-07-17T05:19:48;17.00;99.90
13970;DHT22;7057;49.984;8.404;2022-07-17T05:22:17;17.10;99.90
13970;DHT22;7057;49.984;8.404;2022-07-17T05:24:44;17.20;99.90
13970;DHT22;7057;49.984;8.404;2022-07-17T05:27:11;17.30;99.90
13970;DHT22;7057;49.984;8.404;2022-07-17T05:29:38;17.30;99.90
13970;DHT22;7057;49.984;8.404;2022-07-17T05:32:05;17.40;99.90
13970;DHT22;7057;49.984;8.404;2022-07-17T05:34:33;17.50;99.90
13970;DHT22;7057;49.984;8.404;2022-07-17T05:37:00;17.60;99.90
13970;DHT22;7057;49.984;8.404;2022-07-17T05:39:28;17.70;99.90
13970;DHT22;7057;49.984;8.404;2022-07-17T05:41:55;17.70;99.90
13970;DHT22;7057;49.984;8.404;2022-07-17T05:44:23;17.70;99.90
13970;DHT22;7057;49.984;8.404;2022-07-17T05:46:50;17.80;99.90
13970;DHT22;7057;49.984;8.404;2022-07-17T05:49:17;18.00;99.90
13970;DHT22;7057;49.984;8.404;2022-07-17T05:51:44;17.90;99.90
13970;DHT22;7057;49.984;8.404;2022-07-17T05:54:11;18.10;99.90
13970;DHT22;7057;49.984;8.404;2022-07-17T05:56:39;18.10;99.90
13970;DHT22;7057;49.984;8.404;2022-07-17T05:59:07;18.20;99.90
13970;DHT22;7057;49.984;8.404;2022-07-17T06:01:34;18.30;99.90
13970;DHT22;7057;49.984;8.404;2022-07-17T06:04:01;18.40;99.90
13970;DHT22;7057;49.984;8.404;2022-07-17T06:06:28;18.50;99.90
13970;DHT22;7057;49.984;8.404;2022-07-17T06:08:55;18.60;99.90
13970;DHT22;7057;49.984;8.404;2022-07-17T06:11:22;18.60;99.90
13970;DHT22;7057;49.984;8.404;2022-07-17T06:13:51;18.70;99.90
13970;DHT22;7057;49.984;8.404;2022-07-17T06:16:18;18.80;99.90
13970;DHT22;7057;49.984;8.404;2022-07-17T06:18:45;19.00;99.90
13970;DHT22;7057;49.984;8.404;2022-07-17T06:21:12;19.10;99.90
13970;DHT22;7057;49.984;8.404;2022-07-17T06:23:40;19.30;99.90
13970;DHT22;7057;49.984;8.404;2022-07-17T06:26:07;19.40;99.90
13970;DHT22;7057;49.984;8.404;2022-07-17T06:28:34;19.40;99.90
13970;DHT22;7057;49.984;8.404;2022-07-17T06:31:02;19.50;99.90
13970;DHT22;7057;49.984;8.404;2022-07-17T06:33:30;19.60;99.90
13970;DHT22;7057;49.984;8.404;2022-07-17T06:35:57;19.70;99.90
13970;DHT22;7057;49.984;8.404;2022-07-17T06:38:24;19.70;99.90
13970;DHT22;7057;49.984;8.404;2022-07-17T06:40:51;19.80;99.90
13970;DHT22;7057;49.984;8.404;2022-07-17T06:43:19;19.80;99.90
13970;DHT22;7057;49.984;8.404;2022-07-17T06:45:46;19.90;99.90
13970;DHT22;7057;49.984;8.404;2022-07-17T06:48:14;20.00;99.90
13970;DHT22;7057;49.984;8.404;2022-07-17T06:50:41;20.10;99.90
13970;DHT22;7057;49.984;8.404;2022-07-17T06:53:09;20.10;99.90
13970;DHT22;7057;49.984;8.404;2022-07-17T06:55:36;20.30;99.90
13970;DHT22;7057;49.984;8.404;2022-07-17T06:58:04;20.30;99.90
13970;DHT22;7057;49.984;8.404;2022-07-17T07:00:31;20.30;99.90
13970;DHT22;7057;49.984;8.404;2022-07-17T07:02:58;20.40;99.90
13970;DHT22;7057;49.984;8.404;2022-07-17T07:05:27;20.60;99.90
13970;DHT22;7057;49.984;8.404;2022-07-17T07:07:54;20.70;99.90
13970;DHT22;7057;49.984;8.404;2022-07-17T07:10:21;20.70;99.90
13970;DHT22;7057;49.984;8.404;2022-07-17T07:12:48;20.80;99.90
13970;DHT22;7057;49.984;8.404;2022-07-17T07:15:15;20.80;99.90
13970;DHT22;7057;49.984;8.404;2022-07-17T07:17:43;21.00;99.90
13970;DHT22;7057;49.984;8.404;2022-07-17T07:20:10;21.10;99.90
13970;DHT22;7057;49.984;8.404;2022-07-17T07:22:39;21.30;99.90
13970;DHT22;7057;49.984;8.404;2022-07-17T07:25:07;21.30;99.90
13970;DHT22;7057;49.984;8.404;2022-07-17T07:27:34;21.50;99.90
13970;DHT22;7057;49.984;8.404;2022-07-17T07:30:01;21.60;99.90
13970;DHT22;7057;49.984;8.404;2022-07-17T07:32:29;21.70;99.90
13970;DHT22;7057;49.984;8.404;2022-07-17T07:34:56;21.80;99.90
13970;DHT22;7057;49.984;8.404;2022-07-17T07:37:23;21.70;99.90
13970;DHT22;7057;49.984;8.404;2022-07-17T07:39:51;21.80;99.90
13970;DHT22;7057;49.984;8.404;2022-07-17T07:42:18;21.90;99.90
13970;DHT22;7057;49.984;8.404;2022-07-17T07:44:46;21.90;99.90
13970;DHT22;7057;49.984;8.404;2022-07-17T07:47:13;22.10;99.90
13970;DHT22;7057;49.984;8.404;2022-07-17T07:49:40;22.20;99.90
13970;DHT22;7057;49.984;8.404;2022-07-17T07:52:07;22.30;99.70
13970;DHT22;7057;49.984;8.404;2022-07-17T07:54:34;22.30;99.90
13970;DHT22;7057;49.984;8.404;2022-07-17T07:57:03;22.40;99.60
13970;DHT22;7057;49.984;8.404;2022-07-17T07:59:31;22.50;99.80
13970;DHT22;7057;49.984;8.404;2022-07-17T08:01:58;22.60;99.50
13970;DHT22;7057;49.984;8.404;2022-07-17T08:04:26;22.50;98.90
13970;DHT22;7057;49.984;8.404;2022-07-17T08:06:53;22.50;99.40
13970;DHT22;7057;49.984;8.404;2022-07-17T08:09:20;22.70;99.40
13970;DHT22;7057;49.984;8.404;2022-07-17T08:11:47;22.60;99.10
13970;DHT22;7057;49.984;8.404;2022-07-17T08:14:16;22.80;98.80
13970;DHT22;7057;49.984;8.404;2022-07-17T08:16:43;23.00;98.60
13970;DHT22;7057;49.984;8.404;2022-07-17T08:19:10;23.20;98.50
13970;DHT22;7057;49.984;8.404;2022-07-17T08:21:38;23.20;98.10
13970;DHT22;7057;49.984;8.404;2022-07-17T08:24:05;23.30;96.90
13970;DHT22;7057;49.984;8.404;2022-07-17T08:26:32;23.30;96.90
13970;DHT22;7057;49.984;8.404;2022-07-17T08:28:59;23.40;97.10
13970;DHT22;7057;49.984;8.404;2022-07-17T08:31:28;23.50;96.80
13970;DHT22;7057;49.984;8.404;2022-07-17T08:33:55;23.60;96.10
13970;DHT22;7057;49.984;8.404;2022-07-17T08:36:22;23.50;96.00
13970;DHT22;7057;49.984;8.404;2022-07-17T08:38:49;23.60;95.90
13970;DHT22;7057;49.984;8.404;2022-07-17T08:41:17;23.60;95.70
13970;DHT22;7057;49.984;8.404;2022-07-17T08:43:47;23.70;95.40
13970;DHT22;7057;49.984;8.404;2022-07-17T08:46:17;23.70;95.00
13970;DHT22;7057;49.984;8.404;2022-07-17T08:48:46;23.80;95.60
13970;DHT22;7057;49.984;8.404;2022-07-17T08:51:17;23.80;94.00
13970;DHT22;7057;49.984;8.404;2022-07-17T08:53:44;23.70;95.90
13970;DHT22;7057;49.984;8.404;2022-07-17T08:56:11;23.80;96.10
13970;DHT22;7057;49.984;8.404;2022-07-17T08:58:39;23.90;94.50
13970;DHT22;7057;49.984;8.404;2022-07-17T09:01:06;24.10;96.40
13970;DHT22;7057;49.984;8.404;2022-07-17T09:03:33;24.20;95.10
13970;DHT22;7057;49.984;8.404;2022-07-17T09:06:03;24.30;93.90
13970;DHT22;7057;49.984;8.404;2022-07-17T09:08:31;24.30;93.70
13970;DHT22;7057;49.984;8.404;2022-07-17T09:11:05;24.40;93.70
13970;DHT22;7057;49.984;8.404;2022-07-17T09:13:33;24.40;92.80
13970;DHT22;7057;49.984;8.404;2022-07-17T09:16:07;24.40;93.40
13970;DHT22;7057;49.984;8.404;2022-07-17T09:18:43;24.50;92.20
13970;DHT22;7057;49.984;8.404;2022-07-17T09:21:18;24.60;92.40
13970;DHT22;7057;49.984;8.404;2022-07-17T09:23:45;24.40;92.00
13970;DHT22;7057;49.984;8.404;2022-07-17T09:26:13;24.60;92.30
13970;DHT22;7057;49.984;8.404;2022-07-17T09:28:46;24.70;93.30
13970;DHT22;7057;49.984;8.404;2022-07-17T09:31:24;24.90;92.50
13970;DHT22;7057;49.984;8.404;2022-07-17T09:33:51;24.90;92.70
13970;DHT22;7057;49.984;8.404;2022-07-17T09:36:20;25.00;93.10
13970;DHT22;7057;49.984;8.404;2022-07-17T09:38:49;25.20;92.50
13970;DHT22;7057;49.984;8.404;2022-07-17T09:41:19;25.20;93.40
13970;DHT22;7057;49.984;8.404;2022-07-17T09:43:48;25.10;91.20
13970;DHT22;7057;49.984;8.404;2022-07-17T09:46:18;25.10;92.60
13970;DHT22;7057;49.984;8.404;2022-07-17T09:48:48;25.30;92.20
13970;DHT22;7057;49.984;8.404;2022-07-17T09:51:20;25.50;92.30
13970;DHT22;7057;49.984;8.404;2022-07-17T09:53:48;25.60;88.90
13970;DHT22;7057;49.984;8.404;2022-07-17T09:56:17;25.60;89.40
13970;DHT22;7057;49.984;8.404;2022-07-17T09:58:47;25.60;89.20
13970;DHT22;7057;49.984;8.404;2022-07-17T10:01:17;25.60;87.00
13970;DHT22;7057;49.984;8.404;2022-07-17T10:03:45;25.60;86.10
13970;DHT22;7057;49.984;8.404;2022-07-17T10:06:15;25.80;87.90
13970;DHT22;7057;49.984;8.404;2022-07-17T10:08:43;26.10;86.80
13970;DHT22;7057;49.984;8.404;2022-07-17T10:11:11;26.20;86.40
13970;DHT22;7057;49.984;8.404;2022-07-17T10:13:44;26.20;86.50
13970;DHT22;7057;49.984;8.404;2022-07-17T10:16:12;26.30;85.70
13970;DHT22;7057;49.984;8.404;2022-07-17T10:18:42;26.40;87.30
13970;DHT22;7057;49.984;8.404;2022-07-17T10:21:14;26.30;83.70
13970;DHT22;7057;49.984;8.404;2022-07-17T10:23:47;26.30;84.50
13970;DHT22;7057;49.984;8.404;2022-07-17T10:26:15;26.30;83.40
13970;DHT22;7057;49.984;8.404;2022-07-17T10:28:43;26.20;84.50
13970;DHT22;7057;49.984;8.404;2022-07-17T10:31:22;26.30;82.50
13970;DHT22;7057;49.984;8.404;2022-07-17T10:33:57;26.40;81.30
13970;DHT22;7057;49.984;8.404;2022-07-17T10:36:38;26.40;81.10
13970;DHT22;7057;49.984;8.404;2022-07-17T10:39:13;26.30;81.60
13970;DHT22;7057;49.984;8.404;2022-07-17T10:41:42;26.40;80.00
13970;DHT22;7057;49.984;8.404;2022-07-17T10:44:09;26.50;79.70
13970;DHT22;7057;49.984;8.404;2022-07-17T10:46:37;26.60;79.80
13970;DHT22;7057;49.984;8.404;2022-07-17T10:49:04;26.60;76.50
13970;DHT22;7057;49.984;8.404;2022-07-17T10:51:31;26.60;75.90
13970;DHT22;7057;49.984;8.404;2022-07-17T10:53:59;26.50;74.00
13970;DHT22;7057;49.984;8.404;2022-07-17T10:56:28;26.60;72.90
13970;DHT22;7057;49.984;8.404;2022-07-17T10:59:03;26.50;73.10
13970;DHT22;7057;49.984;8.404;2022-07-17T11:01:30;26.60;73.80
13970;DHT22;7057;49.984;8.404;2022-07-17T11:04:00;26.60;74.10
13970;DHT22;7057;49.984;8.404;2022-07-17T11:06:29;26.70;74.10
13970;DHT22;7057;49.984;8.404;2022-07-17T11:08:58;26.80;70.50
13970;DHT22;7057;49.984;8.404;2022-07-17T11:11:37;26.90;69.90
13970;DHT22;7057;49.984;8.404;2022-07-17T11:14:09;27.00;67.10
13970;DHT22;7057;49.984;8.404;2022-07-17T11:16:42;26.90;66.60
13970;DHT22;7057;49.984;8.404;2022-07-17T11:19:11;26.90;66.60
13970;DHT22;7057;49.984;8.404;2022-07-17T11:21:46;27.00;65.40
13970;DHT22;7057;49.984;8.404;2022-07-17T11:24:13;27.10;63.10
13970;DHT22;7057;49.984;8.404;2022-07-17T11:26:43;27.30;63.70
13970;DHT22;7057;49.984;8.404;2022-07-17T11:29:11;27.50;62.70
13970;DHT22;7057;49.984;8.404;2022-07-17T11:31:38;27.50;60.70
13970;DHT22;7057;49.984;8.404;2022-07-17T11:34:07;27.40;61.50
13970;DHT22;7057;49.984;8.404;2022-07-17T11:36:36;27.30;58.20
13970;DHT22;7057;49.984;8.404;2022-07-17T11:39:06;27.40;61.40
13970;DHT22;7057;49.984;8.404;2022-07-17T11:41:38;27.60;61.60
13970;DHT22;7057;49.984;8.404;2022-07-17T11:44:09;27.70;62.50
13970;DHT22;7057;49.984;8.404;2022-07-17T11:46:37;27.70;61.00
13970;DHT22;7057;49.984;8.404;2022-07-17T11:49:05;27.40;64.80
13970;DHT22;7057;49.984;8.404;2022-07-17T11:51:38;27.40;67.60
13970;DHT22;7057;49.984;8.404;2022-07-17T11:54:06;27.30;67.60
13970;DHT22;7057;49.984;8.404;2022-07-17T11:56:34;27.50;66.50
13970;DHT22;7057;49.984;8.404;2022-07-17T11:59:02;27.70;64.30
13970;DHT22;7057;49.984;8.404;2022-07-17T12:01:38;27.70;65.50
13970;DHT22;7057;49.984;8.404;2022-07-17T12:04:07;27.80;64.40
13970;DHT22;7057;49.984;8.404;2022-07-17T12:06:35;27.90;65.30
13970;DHT22;7057;49.984;8.404;2022-07-17T12:09:03;27.80;64.10
13970;DHT22;7057;49.984;8.404;2022-07-17T12:11:30;27.80;64.70
13970;DHT22;7057;49.984;8.404;2022-07-17T12:14:04;27.50;65.60
13970;DHT22;7057;49.984;8.404;2022-07-17T12:16:35;27.50;67.80
13970;DHT22;7057;49.984;8.404;2022-07-17T12:19:08;27.60;67.10
13970;DHT22;7057;49.984;8.404;2022-07-17T12:21:54;27.70;65.70
13970;DHT22;7057;49.984;8.404;2022-07-17T12:24:25;27.90;66.10
13970;DHT22;7057;49.984;8.404;2022-07-17T12:26:55;28.10;65.50
13970;DHT22;7057;49.984;8.404;2022-07-17T12:29:24;28.30;65.30
13970;DHT22;7057;49.984;8.404;2022-07-17T12:32:02;28.30;65.60
13970;DHT22;7057;49.984;8.404;2022-07-17T12:34:29;28.10;63.10
13970;DHT22;7057;49.984;8.404;2022-07-17T12:36:57;28.00;62.30
13970;DHT22;7057;49.984;8.404;2022-07-17T12:39:24;28.00;66.80
13970;DHT22;7057;49.984;8.404;2022-07-17T12:41:51;28.30;60.60
13970;DHT22;7057;49.984;8.404;2022-07-17T12:44:18;28.40;62.00
13970;DHT22;7057;49.984;8.404;2022-07-17T12:46:45;28.50;61.40
13970;DHT22;7057;49.984;8.404;2022-07-17T12:49:14;28.60;62.40
13970;DHT22;7057;49.984;8.404;2022-07-17T12:51:41;28.60;59.90
13970;DHT22;7057;49.984;8.404;2022-07-17T12:54:08;28.60;61.70
13970;DHT22;7057;49.984;8.404;2022-07-17T12:56:35;28.70;61.00
13970;DHT22;7057;49.984;8.404;2022-07-17T12:59:02;28.80;62.20
13970;DHT22;7057;49.984;8.404;2022-07-17T13:01:29;28.80;60.60
13970;DHT22;7057;49.984;8.404;2022-07-17T13:03:57;28.90;62.70
13970;DHT22;7057;49.984;8.404;2022-07-17T13:06:25;28.70;60.30
13970;DHT22;7057;49.984;8.404;2022-07-17T13:08:53;28.60;61.40
13970;DHT22;7057;49.984;8.404;2022-07-17T13:11:20;28.50;61.60
13970;DHT22;7057;49.984;8.404;2022-07-17T13:13:47;28.60;61.70
13970;DHT22;7057;49.984;8.404;2022-07-17T13:16:14;28.70;61.70
13970;DHT22;7057;49.984;8.404;2022-07-17T13:18:42;28.70;61.70
13970;DHT22;7057;49.984;8.404;2022-07-17T13:21:09;28.50;62.00
13970;DHT22;7057;49.984;8.404;2022-07-17T13:23:38;28.70;62.90
13970;DHT22;7057;49.984;8.404;2022-07-17T13:26:05;28.80;63.30
13970;DHT22;7057;49.984;8.404;2022-07-17T13:28:32;28.80;62.60
13970;DHT22;7057;49.984;8.404;2022-07-17T13:31:00;29.00;63.20
13970;DHT22;7057;49.984;8.404;2022-07-17T13:33:30;29.20;62.60
13970;DHT22;7057;49.984;8.404;2022-07-17T13:35:57;28.80;61.80
13970;DHT22;7057;49.984;8.404;2022-07-17T13:38:24;28.70;61.30
13970;DHT22;7057;49.984;8.404;2022-07-17T13:40:52;28.70;63.20
13970;DHT22;7057;49.984;8.404;2022-07-17T13:43:20;29.00;63.30
13970;DHT22;7057;49.984;8.404;2022-07-17T13:45:47;29.10;62.40
13970;DHT22;7057;49.984;8.404;2022-07-17T13:48:14;29.20;62.70
13970;DHT22;7057;49.984;8.404;2022-07-17T13:50:42;29.20;62.80
13970;DHT22;7057;49.984;8.404;2022-07-17T13:53:09;29.10;61.90
13970;DHT22;7057;49.984;8.404;2022-07-17T13:55:36;28.90;62.10
13970;DHT22;7057;49.984;8.404;2022-07-17T13:58:05;28.80;62.10
13970;DHT22;7057;49.984;8.404;2022-07-17T14:00:33;28.80;62.60
13970;DHT22;7057;49.984;8.404;2022-07-17T14:03:01;28.90;63.00
13970;DHT22;7057;49.984;8.404;2022-07-17T14:05:28;29.10;61.70
13970;DHT22;7057;49.984;8.404;2022-07-17T14:07:55;29.00;61.20
13970;DHT22;7057;49.984;8.404;2022-07-17T14:10:22;29.00;62.20
13970;DHT22;7057;49.984;8.404;2022-07-17T14:12:49;29.20;66.20
13970;DHT22;7057;49.984;8.404;2022-07-17T14:15:19;29.40;65.20
13970;DHT22;7057;49.984;8.404;2022-07-17T14:17:46;29.40;62.70
13970;DHT22;7057;49.984;8.404;2022-07-17T14:20:13;29.20;61.40
13970;DHT22;7057;49.984;8.404;2022-07-17T14:22:40;29.40;61.40
13970;DHT22;7057;49.984;8.404;2022-07-17T14:25:08;29.60;60.80
13970;DHT22;7057;49.984;8.404;2022-07-17T14:27:35;29.70;59.20
13970;DHT22;7057;49.984;8.404;2022-07-17T14:30:03;29.70;59.50
13970;DHT22;7057;49.984;8.404;2022-07-17T14:32:31;29.80;61.20
13970;DHT22;7057;49.984;8.404;2022-07-17T14:34:59;29.70;58.80
13970;DHT22;7057;49.984;8.404;2022-07-17T14:37:26;29.50;60.40
13970;DHT22;7057;49.984;8.404;2022-07-17T14:39:53;29.50;60.60
13970;DHT22;7057;49.984;8.404;2022-07-17T14:42:20;29.50;59.20
13970;DHT22;7057;49.984;8.404;2022-07-17T14:44:48;29.60;59.80
13970;DHT22;7057;49.984;8.404;2022-07-17T14:47:15;29.70;58.80
13970;DHT22;7057;49.984;8.404;2022-07-17T14:49:44;29.80;58.00
13970;DHT22;7057;49.984;8.404;2022-07-17T14:52:11;29.80;58.70
13970;DHT22;7057;49.984;8.404;2022-07-17T14:54:39;29.80;57.80
13970;DHT22;7057;49.984;8.404;2022-07-17T14:57:06;29.90;57.80
13970;DHT22;7057;49.984;8.404;2022-07-17T14:59:33;29.80;57.40
13970;DHT22;7057;49.984;8.404;2022-07-17T15:02:00;29.80;57.80
13970;DHT22;7057;49.984;8.404;2022-07-17T15:04:27;29.90;58.40
13970;DHT22;7057;49.984;8.404;2022-07-17T15:06:56;29.80;57.40
13970;DHT22;7057;49.984;8.404;2022-07-17T15:09:23;29.80;58.00
13970;DHT22;7057;49.984;8.404;2022-07-17T15:11:50;29.70;57.90
13970;DHT22;7057;49.984;8.404;2022-07-17T15:14:17;29.40;57.00
13970;DHT22;7057;49.984;8.404;2022-07-17T15:16:44;29.50;58.30
13970;DHT22;7057;49.984;8.404;2022-07-17T15:19:12;29.70;57.90
13970;DHT22;7057;49.984;8.404;2022-07-17T15:21:39;29.70;57.90
13970;DHT22;7057;49.984;8.404;2022-07-17T15:24:07;29.70;59.00
13970;DHT22;7057;49.984;8.404;2022-07-17T15:26:35;29.80;56.90
13970;DHT22;7057;49.984;8.404;2022-07-17T15:29:02;29.90;58.30
13970;DHT22;7057;49.984;8.404;2022-07-17T15:31:29;29.90;60.20
13970;DHT22;7057;49.984;8.404;2022-07-17T15:33:56;30.00;58.50
13970;DHT22;7057;49.984;8.404;2022-07-17T15:36:23;30.20;57.50
13970;DHT22;7057;49.984;8.404;2022-07-17T15:38:55;30.30;57.50
13970;DHT22;7057;49.984;8.404;2022-07-17T15:41:24;30.40;57.60
13970;DHT22;7057;49.984;8.404;2022-07-17T15:43:51;30.50;57.40
13970;DHT22;7057;49.984;8.404;2022-07-17T15:46:18;30.50;57.20
13970;DHT22;7057;49.984;8.404;2022-07-17T15:48:46;30.40;58.90
13970;DHT22;7057;49.984;8.404;2022-07-17T15:51:13;30.50;57.90